This is the latest recevied weather packets stored in our database for station/object W7TRD. If no packets are shown the sender has not sent any weather packets the latest 10 day(s).
| Time | Temp. | Humidity | Pressure | Rain* | Wind** | Luminosity | Snow |
|---|---|---|---|---|---|---|---|
| 1777832794 | 26.67° C | 48% | 1012.2 hPa | 0 mm | - | 679 W/m² | - |
| 1777832189 | 26.11° C | 48% | 1012.4 hPa | 0 mm | - | 668 W/m² | - |
| 1777831886 | 25.56° C | 53% | 1012.4 hPa | 0 mm | - | 659 W/m² | - |
| 1777829763 | 23.89° C | 57% | 1012.7 hPa | 0 mm | - | 597 W/m² | - |
| 1777829157 | 23.33° C | 56% | 1012.7 hPa | 0 mm | - | 575 W/m² | - |
| 1777827944 | 22.78° C | 59% | 1012.9 hPa | 0 mm | - | 531 W/m² | - |
| 1777826732 | 21.67° C | 62% | 1013.1 hPa | 0 mm | - | 483 W/m² | - |
| 1777826126 | 21.11° C | 64% | 1013.2 hPa | 0 mm | - | 456 W/m² | - |
| 1777825823 | 21.11° C | 63% | 1013.2 hPa | 0 mm | - | 445 W/m² | - |
| 1777825218 | 21.11° C | 64% | 1013.2 hPa | 0 mm | - | 418 W/m² | - |
| 1777823700 | 18.89° C | 71% | 1013.3 hPa | 0 mm | - | 333 W/m² | - |
| 1777821582 | 17.78° C | 77% | 1013.1 hPa | 0 mm | - | 71 W/m² | - |
| 1777820067 | 18.33° C | 76% | 1013.4 hPa | 0 mm | - | 135 W/m² | - |
| 1777816128 | 12.22° C | 99% | 1013 hPa | 0 mm | - | 33 W/m² | - |
| 1777814916 | 10.56° C | 99% | 1012.9 hPa | 0 mm | - | 16 W/m² | - |
| 1777814310 | 10.56° C | 99% | 1013 hPa | 0 mm | - | 11 W/m² | - |
| 1777813704 | 10.56° C | 99% | 1012.9 hPa | 0 mm | - | 7 W/m² | - |
| 1777812492 | 10.56° C | 99% | 1012.9 hPa | 0 mm | - | 1 W/m² | - |
| 1777810676 | 11.11° C | 98% | 1012.8 hPa | 0 mm | - | 0 W/m² | - |
| 1777810373 | 11.11° C | 98% | 1012.9 hPa | 0 mm | - | 0 W/m² | - |
| 1777808859 | 11.11° C | 98% | 1013.2 hPa | 0 mm | - | 0 W/m² | - |
| 1777808556 | 11.67° C | 98% | 1012.8 hPa | 0 mm | - | 0 W/m² | - |
| 1777807952 | 11.11° C | 98% | 1013.2 hPa | 0 mm | - | 0 W/m² | - |
| 1777807346 | 11.67° C | 97% | 1013.3 hPa | 0 mm | - | 0 W/m² | - |
| 1777807042 | 11.67° C | 97% | 1013.1 hPa | 0 mm | - | 0 W/m² | - |
* Rain latest hour (hover to see other rain measurements)
** Current wind speed in m/s (hover to see current wind gust speed)